North Hills, North Carolina
Current Conditions -  °F | °C
As of 2:12 PM on Thursday 27 Nov 2014 (Local Time) from KRDU Reporting Station
Broken Clouds Broken Clouds  
Wind Chill: 42°   Ceiling: 11000
Heat Index: 45°   Visibility: 10mi
Dew Point: 37°   Wind: 5mph
Humidity: 76%   Direction: NA
Pressure: 30.07"   Gusts: NA
Location:  35.9447°N, 78.6275°W
Report Text: KRDU 271912Z VRB04KT 10SM SCT015 BKN110 BKN250 07/03 A3007 RMK AO2 $
Loading
Personal Weather Stations






























Interactive Weather Map New forecast layout! Learn more

10-Day Weather Forecast

Advertisements
Track Severe Weather on mobile